PWSweather.com
Personal Weather Stations
Station Observations
CAPEBRETON
Mira Road, Sydney, NS

Mira RoadSydney, NS

Lat: 46.1207292, Lon: -60.1594642

Elevation: 175

Station Type: LaCrosse Weather Pro Center 2800 Series

http://pwscapebreton.weebly.com/

Latest ConditionsUpdated 10:41:14 AM GMT-04:56 Tuesday, Jul 29, 2014
Currently Today's Max Today's Min Today's Average
Temperature 76.3°F24.6°C 77.8°F25.4°C 67.7°F19.8°C 71.3°F21.8°C
Dew Point 69.4°F20.8°C 70.4°F21.3°C 66.2°F19.0°C 68.3°F20.2°C
Winds 2.5 mph NW4.0 kmh NW 4.8 mph SW7.7 kmh SW - 2.6 mph 4.2 kmh
Wind Gusts 6.0 mph9.7 kmh 7.8 mph12.6 kmh - -
Humidity 79% 95% 75% 91%
Pressure 29.92 in1013.2 mb 29.92 in1013.2 mb 29.83 in1010.2 mb -
Precipitation - 0.12 in3.0 mm - -
Hour Temp Dew Point Humidity Winds Wind Gusts Pressure Precip Precip Rate Daily Precip Total
10:41 AM 76.3°F24.6°C 69.4°F20.8°C 79% 2.5 mph NW4.0 kmh NW 6.0 mph9.7 kmh 29.92 in1013.2 mb 0.00 in0.0 mm 0.00 in/hr0.0 mm/hr 0.12 in3.0 mm
10:36 AM 75.2°F24.0°C 68.4°F20.2°C 79% 4.3 mph WNW6.9 kmh WNW 6.0 mph9.7 kmh 29.92 in1013.2 mb 0.00 in0.0 mm 0.00 in/hr0.0 mm/hr 0.12 in3.0 mm
10:31 AM 75.2°F24.0°C 68.4°F20.2°C 79% 3.5 mph WSW5.6 kmh WSW 5.8 mph9.3 kmh 29.92 in1013.2 mb 0.00 in0.0 mm 0.00 in/hr0.0 mm/hr 0.12 in3.0 mm
10:26 AM 75.2°F24.0°C 68.4°F20.2°C 79% 3.4 mph WSW5.5 kmh WSW 5.8 mph9.3 kmh 29.92 in1013.2 mb 0.00 in0.0 mm 0.00 in/hr0.0 mm/hr 0.12 in3.0 mm
10:21 AM 75.2°F24.0°C 68.8°F20.4°C 80% 1.6 mph SW2.6 kmh SW 5.4 mph8.7 kmh 29.92 in1013.2 mb 0.00 in0.0 mm 0.00 in/hr0.0 mm/hr 0.12 in3.0 mm
10:16 AM 75.2°F24.0°C 68.4°F20.2°C 79% 3.0 mph W4.8 kmh W 5.4 mph8.7 kmh 29.92 in1013.2 mb 0.00 in0.0 mm 0.00 in/hr0.0 mm/hr 0.12 in3.0 mm
10:11 AM 75.6°F24.2°C 68.7°F20.4°C 79% 2.0 mph W3.2 kmh W 4.7 mph7.6 kmh 29.92 in1013.2 mb 0.00 in0.0 mm 0.00 in/hr0.0 mm/hr 0.12 in3.0 mm
10:06 AM 75.6°F24.2°C 68.7°F20.4°C 79% 2.7 mph E4.3 kmh E 5.1 mph8.2 kmh 29.92 in1013.2 mb 0.00 in0.0 mm 0.00 in/hr0.0 mm/hr 0.12 in3.0 mm
10:01 AM 75.6°F24.2°C 68.7°F20.4°C 79% 3.2 mph WNW5.1 kmh WNW 5.1 mph8.2 kmh 29.92 in1013.2 mb 0.00 in0.0 mm 0.00 in/hr0.0 mm/hr 0.12 in3.0 mm
09:56 AM 75.8°F24.3°C 68.5°F20.3°C 78% 3.2 mph S5.1 kmh S 5.4 mph8.7 kmh 29.92 in1013.2 mb 0.00 in0.0 mm 0.00 in/hr0.0 mm/hr 0.12 in3.0 mm
09:51 AM 76.0°F24.4°C 68.7°F20.4°C 78% 2.3 mph NE3.7 kmh NE 5.8 mph9.3 kmh 29.92 in1013.2 mb 0.00 in0.0 mm 0.00 in/hr0.0 mm/hr 0.12 in3.0 mm
09:46 AM 76.3°F24.6°C 68.6°F20.3°C 77% 3.4 mph WNW5.5 kmh WNW 5.8 mph9.3 kmh 29.92 in1013.2 mb 0.00 in0.0 mm 0.00 in/hr0.0 mm/hr 0.12 in3.0 mm
09:41 AM 77.2°F25.1°C 69.0°F20.6°C 76% 2.6 mph W4.2 kmh W 5.8 mph9.3 kmh 29.92 in1013.2 mb 0.00 in0.0 mm 0.00 in/hr0.0 mm/hr 0.12 in3.0 mm
09:36 AM 77.8°F25.4°C 69.2°F20.7°C 75% 3.2 mph SW5.1 kmh SW 6.5 mph10.5 kmh 29.91 in1012.9 mb 0.00 in0.0 mm 0.00 in/hr0.0 mm/hr 0.12 in3.0 mm
09:31 AM 77.8°F25.4°C 69.2°F20.7°C 75% 2.9 mph W4.7 kmh W 6.5 mph10.5 kmh 29.91 in1012.9 mb 0.00 in0.0 mm 0.00 in/hr0.0 mm/hr 0.12 in3.0 mm
09:26 AM 77.8°F25.4°C 69.2°F20.7°C 75% 4.1 mph S6.6 kmh S 5.6 mph9.0 kmh 29.91 in1012.9 mb 0.00 in0.0 mm 0.00 in/hr0.0 mm/hr 0.12 in3.0 mm
09:21 AM 77.4°F25.2°C 69.6°F20.9°C 77% 3.8 mph WSW6.1 kmh WSW 7.6 mph12.2 kmh 29.91 in1012.9 mb 0.00 in0.0 mm 0.00 in/hr0.0 mm/hr 0.12 in3.0 mm
09:16 AM 76.9°F24.9°C 68.7°F20.4°C 76% 3.6 mph W5.8 kmh W 7.6 mph12.2 kmh 29.90 in1012.5 mb 0.00 in0.0 mm 0.00 in/hr0.0 mm/hr 0.12 in3.0 mm
09:11 AM 76.7°F24.8°C 68.5°F20.3°C 76% 4.8 mph SW7.7 kmh SW 5.8 mph9.3 kmh 29.90 in1012.5 mb 0.00 in0.0 mm 0.00 in/hr0.0 mm/hr 0.12 in3.0 mm
09:06 AM 76.9°F24.9°C 69.1°F20.6°C 77% 3.2 mph SSW5.1 kmh SSW 6.3 mph10.1 kmh 29.90 in1012.5 mb 0.00 in0.0 mm 0.00 in/hr0.0 mm/hr 0.12 in3.0 mm
09:01 AM 76.7°F24.8°C 69.3°F20.7°C 78% 4.1 mph WSW6.6 kmh WSW 6.3 mph10.1 kmh 29.90 in1012.5 mb 0.00 in0.0 mm 0.00 in/hr0.0 mm/hr 0.12 in3.0 mm
08:56 AM 76.3°F24.6°C 69.4°F20.8°C 79% 3.1 mph NE5.0 kmh NE 6.3 mph10.1 kmh 29.89 in1012.2 mb 0.00 in0.0 mm 0.00 in/hr0.0 mm/hr 0.12 in3.0 mm
08:50 AM 76.0°F24.4°C 69.0°F20.6°C 79% 4.3 mph W6.9 kmh W 6.0 mph9.7 kmh 29.89 in1012.2 mb 0.00 in0.0 mm 0.00 in/hr0.0 mm/hr 0.12 in3.0 mm
08:45 AM 76.0°F24.4°C 69.0°F20.6°C 79% 3.9 mph WSW6.3 kmh WSW 6.0 mph9.7 kmh 29.89 in1012.2 mb 0.00 in0.0 mm 0.00 in/hr0.0 mm/hr 0.12 in3.0 mm
08:40 AM 75.8°F24.3°C 69.6°F20.9°C 81% 2.9 mph SE4.7 kmh SE 6.7 mph10.8 kmh 29.90 in1012.5 mb 0.00 in0.0 mm 0.00 in/hr0.0 mm/hr 0.12 in3.0 mm
08:35 AM 75.6°F24.2°C 69.4°F20.8°C 81% 3.3 mph ESE5.3 kmh ESE 6.7 mph10.8 kmh 29.90 in1012.5 mb 0.00 in0.0 mm 0.00 in/hr0.0 mm/hr 0.12 in3.0 mm
08:30 AM 75.2°F24.0°C 69.8°F21.0°C 83% 2.7 mph WSW4.3 kmh WSW 6.5 mph10.5 kmh 29.90 in1012.5 mb 0.00 in0.0 mm 0.00 in/hr0.0 mm/hr 0.12 in3.0 mm
08:25 AM 74.9°F23.8°C 69.8°F21.0°C 84% 2.4 mph WSW3.9 kmh WSW 6.5 mph10.5 kmh 29.89 in1012.2 mb 0.00 in0.0 mm 0.00 in/hr0.0 mm/hr 0.12 in3.0 mm
08:20 AM 74.9°F23.8°C 70.1°F21.2°C 85% 3.5 mph W5.6 kmh W 5.4 mph8.7 kmh 29.90 in1012.5 mb 0.00 in0.0 mm 0.00 in/hr0.0 mm/hr 0.12 in3.0 mm
08:15 AM 74.5°F23.6°C 70.1°F21.2°C 86% 3.5 mph NW5.6 kmh NW 4.9 mph7.9 kmh 29.90 in1012.5 mb 0.00 in0.0 mm 0.00 in/hr0.0 mm/hr 0.12 in3.0 mm
08:10 AM 74.3°F23.5°C 70.3°F21.3°C 87% 2.8 mph WSW4.5 kmh WSW 6.5 mph10.5 kmh 29.89 in1012.2 mb 0.00 in0.0 mm 0.00 in/hr0.0 mm/hr 0.12 in3.0 mm
08:05 AM 74.2°F23.4°C 70.4°F21.3°C 88% 2.7 mph WNW4.3 kmh WNW 6.5 mph10.5 kmh 29.89 in1012.2 mb 0.00 in0.0 mm 0.00 in/hr0.0 mm/hr 0.12 in3.0 mm
08:00 AM 73.6°F23.1°C 70.2°F21.2°C 89% 1.7 mph NNW2.7 kmh NNW 5.4 mph8.7 kmh 29.89 in1012.2 mb 0.00 in0.0 mm 0.00 in/hr0.0 mm/hr 0.12 in3.0 mm
07:55 AM 73.3°F22.9°C 69.5°F20.8°C 88% 2.8 mph S4.5 kmh S 5.4 mph8.7 kmh 29.89 in1012.2 mb 0.00 in0.0 mm 0.00 in/hr0.0 mm/hr 0.12 in3.0 mm
07:50 AM 72.9°F22.7°C 69.1°F20.6°C 88% 2.4 mph NW3.9 kmh NW 7.6 mph12.2 kmh 29.89 in1012.2 mb 0.00 in0.0 mm 0.00 in/hr0.0 mm/hr 0.12 in3.0 mm
07:45 AM 72.9°F22.7°C 69.8°F21.0°C 90% 2.2 mph WNW3.5 kmh WNW 7.6 mph12.2 kmh 29.89 in1012.2 mb 0.00 in0.0 mm 0.00 in/hr0.0 mm/hr 0.12 in3.0 mm
07:40 AM 72.7°F22.6°C 69.9°F21.1°C 91% 2.0 mph WSW3.2 kmh WSW 6.0 mph9.7 kmh 29.89 in1012.2 mb 0.00 in0.0 mm 0.00 in/hr0.0 mm/hr 0.12 in3.0 mm
07:35 AM 72.4°F22.4°C 69.6°F20.9°C 91% 3.1 mph NW5.0 kmh NW 6.0 mph9.7 kmh 29.89 in1012.2 mb 0.00 in0.0 mm 0.00 in/hr0.0 mm/hr 0.12 in3.0 mm
07:30 AM 72.4°F22.4°C 69.6°F20.9°C 91% 3.3 mph SW5.3 kmh SW 5.1 mph8.2 kmh 29.89 in1012.2 mb 0.00 in0.0 mm 0.00 in/hr0.0 mm/hr 0.12 in3.0 mm
07:25 AM 72.0°F22.2°C 69.8°F21.0°C 93% 3.1 mph NE5.0 kmh NE 5.1 mph8.2 kmh 29.88 in1011.9 mb 0.00 in0.0 mm 0.00 in/hr0.0 mm/hr 0.12 in3.0 mm
07:20 AM 71.6°F22.0°C 69.5°F20.8°C 93% 3.0 mph WNW4.8 kmh WNW 6.3 mph10.1 kmh 29.88 in1011.9 mb 0.00 in0.0 mm 0.00 in/hr0.0 mm/hr 0.12 in3.0 mm
07:15 AM 71.3°F21.8°C 69.5°F20.8°C 94% 2.4 mph ESE3.9 kmh ESE 6.3 mph10.1 kmh 29.88 in1011.9 mb 0.00 in0.0 mm 0.00 in/hr0.0 mm/hr 0.12 in3.0 mm
07:10 AM 70.9°F21.6°C 68.8°F20.4°C 93% 3.7 mph SE6.0 kmh SE 5.4 mph8.7 kmh 29.88 in1011.9 mb 0.00 in0.0 mm 0.00 in/hr0.0 mm/hr 0.12 in3.0 mm
07:05 AM 70.9°F21.6°C 69.1°F20.6°C 94% 2.5 mph WSW4.0 kmh WSW 6.9 mph11.1 kmh 29.88 in1011.9 mb 0.00 in0.0 mm 0.00 in/hr0.0 mm/hr 0.12 in3.0 mm
07:00 AM 70.7°F21.5°C 69.0°F20.6°C 94% 3.8 mph WNW6.1 kmh WNW 6.9 mph11.1 kmh 29.88 in1011.9 mb 0.00 in0.0 mm 0.00 in/hr0.0 mm/hr 0.12 in3.0 mm
06:55 AM 70.7°F21.5°C 69.0°F20.6°C 94% 2.7 mph WNW4.3 kmh WNW 4.5 mph7.2 kmh 29.88 in1011.9 mb 0.00 in0.0 mm 0.00 in/hr0.0 mm/hr 0.12 in3.0 mm
06:50 AM 70.7°F21.5°C 69.0°F20.6°C 94% 1.9 mph SW3.1 kmh SW 5.4 mph8.7 kmh 29.87 in1011.5 mb 0.00 in0.0 mm 0.00 in/hr0.0 mm/hr 0.12 in3.0 mm
06:45 AM 70.7°F21.5°C 69.0°F20.6°C 94% 3.4 mph W5.5 kmh W 5.4 mph8.7 kmh 29.87 in1011.5 mb 0.00 in0.0 mm 0.00 in/hr0.0 mm/hr 0.12 in3.0 mm
06:40 AM 70.7°F21.5°C 69.0°F20.6°C 94% 2.3 mph WSW3.7 kmh WSW 5.1 mph8.2 kmh 29.87 in1011.5 mb 0.00 in0.0 mm 0.00 in/hr0.0 mm/hr 0.12 in3.0 mm
06:35 AM 70.6°F21.4°C 68.8°F20.4°C 94% 3.0 mph W4.8 kmh W 5.1 mph8.2 kmh 29.87 in1011.5 mb 0.00 in0.0 mm 0.00 in/hr0.0 mm/hr 0.12 in3.0 mm
06:30 AM 70.6°F21.4°C 69.0°F20.6°C 95% 2.7 mph WSW4.3 kmh WSW 5.1 mph8.2 kmh 29.87 in1011.5 mb 0.00 in0.0 mm 0.00 in/hr0.0 mm/hr 0.12 in3.0 mm
06:25 AM 70.4°F21.3°C 68.9°F20.5°C 95% 3.1 mph W5.0 kmh W 6.3 mph10.1 kmh 29.86 in1011.2 mb 0.00 in0.0 mm 0.00 in/hr0.0 mm/hr 0.12 in3.0 mm
06:20 AM 70.4°F21.3°C 68.9°F20.5°C 95% 2.8 mph SSE4.5 kmh SSE 6.3 mph10.1 kmh 29.86 in1011.2 mb 0.00 in0.0 mm 0.00 in/hr0.0 mm/hr 0.12 in3.0 mm
06:15 AM 70.2°F21.2°C 68.7°F20.4°C 95% 2.4 mph SE3.9 kmh SE 4.7 mph7.6 kmh 29.86 in1011.2 mb 0.00 in0.0 mm 0.00 in/hr0.0 mm/hr 0.12 in3.0 mm
06:10 AM 70.2°F21.2°C 68.7°F20.4°C 95% 2.0 mph WNW3.2 kmh WNW 4.7 mph7.6 kmh 29.86 in1011.2 mb 0.00 in0.0 mm 0.00 in/hr0.0 mm/hr 0.12 in3.0 mm
06:05 AM 70.2°F21.2°C 68.7°F20.4°C 95% 2.5 mph NW4.0 kmh NW 4.5 mph7.2 kmh 29.86 in1011.2 mb 0.00 in0.0 mm 0.00 in/hr0.0 mm/hr 0.12 in3.0 mm
06:00 AM 70.2°F21.2°C 68.7°F20.4°C 95% 1.4 mph WNW2.3 kmh WNW 3.8 mph6.1 kmh 29.86 in1011.2 mb 0.00 in0.0 mm 0.00 in/hr0.0 mm/hr 0.12 in3.0 mm
05:55 AM 70.0°F21.1°C 68.5°F20.3°C 95% 1.4 mph W2.3 kmh W 4.0 mph6.4 kmh 29.87 in1011.5 mb 0.00 in0.0 mm 0.00 in/hr0.0 mm/hr 0.12 in3.0 mm
05:50 AM 70.0°F21.1°C 68.5°F20.3°C 95% 2.0 mph W3.2 kmh W 6.9 mph11.1 kmh 29.87 in1011.5 mb 0.00 in0.0 mm 0.00 in/hr0.0 mm/hr 0.12 in3.0 mm
05:45 AM 70.0°F21.1°C 68.5°F20.3°C 95% 1.6 mph N2.6 kmh N 6.9 mph11.1 kmh 29.86 in1011.2 mb 0.00 in0.0 mm 0.00 in/hr0.0 mm/hr 0.12 in3.0 mm
05:40 AM 69.8°F21.0°C 68.3°F20.2°C 95% 2.7 mph NNW4.3 kmh NNW 6.9 mph11.1 kmh 29.86 in1011.2 mb 0.00 in0.0 mm 0.00 in/hr0.0 mm/hr 0.12 in3.0 mm
05:35 AM 69.8°F21.0°C 68.3°F20.2°C 95% 2.7 mph SW4.3 kmh SW 4.0 mph6.4 kmh 29.86 in1011.2 mb 0.00 in0.0 mm 0.00 in/hr0.0 mm/hr 0.12 in3.0 mm
05:30 AM 69.8°F21.0°C 68.3°F20.2°C 95% 2.0 mph E3.2 kmh E 4.0 mph6.4 kmh 29.86 in1011.2 mb 0.00 in0.0 mm 0.00 in/hr0.0 mm/hr 0.12 in3.0 mm
05:25 AM 69.8°F21.0°C 68.3°F20.2°C 95% 2.0 mph SE3.2 kmh SE 4.0 mph6.4 kmh 29.86 in1011.2 mb 0.00 in0.0 mm 0.00 in/hr0.0 mm/hr 0.12 in3.0 mm
05:20 AM 69.8°F21.0°C 68.3°F20.2°C 95% 2.3 mph SW3.7 kmh SW 4.0 mph6.4 kmh 29.86 in1011.2 mb 0.00 in0.0 mm 0.00 in/hr0.0 mm/hr 0.12 in3.0 mm
05:15 AM 70.0°F21.1°C 68.5°F20.3°C 95% 2.5 mph SW4.0 kmh SW 5.4 mph8.7 kmh 29.86 in1011.2 mb 0.00 in0.0 mm 0.00 in/hr0.0 mm/hr 0.12 in3.0 mm
05:10 AM 70.0°F21.1°C 68.5°F20.3°C 95% 1.6 mph NNW2.6 kmh NNW 5.8 mph9.3 kmh 29.86 in1011.2 mb 0.00 in0.0 mm 0.00 in/hr0.0 mm/hr 0.12 in3.0 mm
05:05 AM 70.0°F21.1°C 68.5°F20.3°C 95% 3.4 mph WSW5.5 kmh WSW 5.8 mph9.3 kmh 29.86 in1011.2 mb 0.00 in0.0 mm 0.00 in/hr0.0 mm/hr 0.12 in3.0 mm
05:00 AM 70.0°F21.1°C 68.5°F20.3°C 95% 3.0 mph W4.8 kmh W 5.8 mph9.3 kmh 29.86 in1011.2 mb 0.00 in0.0 mm 0.00 in/hr0.0 mm/hr 0.12 in3.0 mm
04:55 AM 70.2°F21.2°C 68.7°F20.4°C 95% 1.8 mph S2.9 kmh S 6.7 mph10.8 kmh 29.85 in1010.8 mb 0.00 in0.0 mm 0.00 in/hr0.0 mm/hr 0.12 in3.0 mm
04:50 AM 70.2°F21.2°C 68.7°F20.4°C 95% 2.2 mph W3.5 kmh W 6.7 mph10.8 kmh 29.85 in1010.8 mb 0.00 in0.0 mm 0.00 in/hr0.0 mm/hr 0.12 in3.0 mm
04:45 AM 69.8°F21.0°C 68.3°F20.2°C 95% 1.6 mph W2.6 kmh W 3.8 mph6.1 kmh 29.86 in1011.2 mb 0.00 in0.0 mm 0.00 in/hr0.0 mm/hr 0.12 in3.0 mm
04:40 AM 69.8°F21.0°C 68.3°F20.2°C 95% 2.3 mph WNW3.7 kmh WNW 3.8 mph6.1 kmh 29.86 in1011.2 mb 0.00 in0.0 mm 0.00 in/hr0.0 mm/hr 0.12 in3.0 mm
04:35 AM 69.7°F20.9°C 68.1°F20.1°C 95% 2.7 mph SW4.3 kmh SW 4.3 mph6.9 kmh 29.86 in1011.2 mb 0.00 in0.0 mm 0.00 in/hr0.0 mm/hr 0.12 in3.0 mm
04:30 AM 69.5°F20.8°C 68.0°F20.0°C 95% 1.7 mph WSW2.7 kmh WSW 4.5 mph7.2 kmh 29.86 in1011.2 mb 0.00 in0.0 mm 0.00 in/hr0.0 mm/hr 0.12 in3.0 mm
04:25 AM 69.5°F20.8°C 68.0°F20.0°C 95% 2.9 mph SSW4.7 kmh SSW 4.5 mph7.2 kmh 29.86 in1011.2 mb 0.03 in0.8 mm 0.00 in/hr0.0 mm/hr 0.12 in3.0 mm
04:20 AM 69.5°F20.8°C 68.0°F20.0°C 95% 2.3 mph WSW3.7 kmh WSW 4.7 mph7.6 kmh 29.86 in1011.2 mb 0.04 in1.0 mm 0.00 in/hr0.0 mm/hr 0.12 in3.0 mm
04:15 AM 69.5°F20.8°C 68.0°F20.0°C 95% 2.3 mph W3.7 kmh W 4.7 mph7.6 kmh 29.85 in1010.8 mb 0.04 in1.0 mm 0.00 in/hr0.0 mm/hr 0.12 in3.0 mm
04:10 AM 69.5°F20.8°C 68.0°F20.0°C 95% 3.0 mph WNW4.8 kmh WNW 4.9 mph7.9 kmh 29.85 in1010.8 mb 0.04 in1.0 mm 0.00 in/hr0.0 mm/hr 0.12 in3.0 mm
04:05 AM 69.3°F20.7°C 67.8°F19.9°C 95% 2.5 mph ESE4.0 kmh ESE 5.6 mph9.0 kmh 29.85 in1010.8 mb 0.04 in1.0 mm 0.00 in/hr0.0 mm/hr 0.12 in3.0 mm
04:00 AM 69.3°F20.7°C 67.8°F19.9°C 95% 2.3 mph SW3.7 kmh SW 5.6 mph9.0 kmh 29.85 in1010.8 mb 0.04 in1.0 mm 0.00 in/hr0.0 mm/hr 0.12 in3.0 mm
03:54 AM 69.3°F20.7°C 67.8°F19.9°C 95% 1.9 mph SE3.1 kmh SE 6.5 mph10.5 kmh 29.84 in1010.5 mb 0.04 in1.0 mm 0.00 in/hr0.0 mm/hr 0.12 in3.0 mm
03:49 AM 69.3°F20.7°C 67.8°F19.9°C 95% 3.8 mph SE6.1 kmh SE 6.5 mph10.5 kmh 29.84 in1010.5 mb 0.04 in1.0 mm 0.00 in/hr0.0 mm/hr 0.12 in3.0 mm
03:44 AM 69.3°F20.7°C 67.8°F19.9°C 95% 1.7 mph N2.7 kmh N 4.0 mph6.4 kmh 29.84 in1010.5 mb 0.04 in1.0 mm 0.00 in/hr0.0 mm/hr 0.12 in3.0 mm
03:39 AM 69.1°F20.6°C 67.6°F19.8°C 95% 2.0 mph WSW3.2 kmh WSW 4.0 mph6.4 kmh 29.84 in1010.5 mb 0.04 in1.0 mm 0.00 in/hr0.0 mm/hr 0.12 in3.0 mm
03:34 AM 69.1°F20.6°C 67.6°F19.8°C 95% 2.1 mph WNW3.4 kmh WNW 3.8 mph6.1 kmh 29.85 in1010.8 mb 0.04 in1.0 mm 0.12 in/hr3.0 mm/hr 0.12 in3.0 mm
03:29 AM 69.1°F20.6°C 67.6°F19.8°C 95% 2.5 mph SE4.0 kmh SE 5.4 mph8.7 kmh 29.85 in1010.8 mb 0.03 in0.8 mm 0.36 in/hr9.1 mm/hr 0.11 in2.8 mm
03:24 AM 69.1°F20.6°C 67.6°F19.8°C 95% 2.6 mph SW4.2 kmh SW 6.0 mph9.7 kmh 29.84 in1010.5 mb 0.00 in0.0 mm 0.00 in/hr0.0 mm/hr 0.08 in2.0 mm
03:19 AM 69.1°F20.6°C 67.6°F19.8°C 95% 3.0 mph WSW4.8 kmh WSW 6.3 mph10.1 kmh 29.84 in1010.5 mb 0.00 in0.0 mm 0.00 in/hr0.0 mm/hr 0.08 in2.0 mm
03:14 AM 69.3°F20.7°C 67.8°F19.9°C 95% 2.6 mph WNW4.2 kmh WNW 6.3 mph10.1 kmh 29.84 in1010.5 mb 0.00 in0.0 mm 0.00 in/hr0.0 mm/hr 0.08 in2.0 mm
03:09 AM 69.3°F20.7°C 67.8°F19.9°C 95% 1.9 mph SE3.1 kmh SE 6.5 mph10.5 kmh 29.84 in1010.5 mb 0.00 in0.0 mm 0.00 in/hr0.0 mm/hr 0.08 in2.0 mm
03:04 AM 69.3°F20.7°C 67.8°F19.9°C 95% 3.0 mph S4.8 kmh S 6.5 mph10.5 kmh 29.84 in1010.5 mb 0.00 in0.0 mm 0.00 in/hr0.0 mm/hr 0.08 in2.0 mm
02:59 AM 69.3°F20.7°C 67.8°F19.9°C 95% 1.5 mph N2.4 kmh N 6.5 mph10.5 kmh 29.84 in1010.5 mb 0.00 in0.0 mm 0.00 in/hr0.0 mm/hr 0.08 in2.0 mm
02:54 AM 69.5°F20.8°C 68.0°F20.0°C 95% 3.9 mph NW6.3 kmh NW 6.5 mph10.5 kmh 29.84 in1010.5 mb 0.00 in0.0 mm 0.00 in/hr0.0 mm/hr 0.08 in2.0 mm
02:49 AM 69.3°F20.7°C 67.8°F19.9°C 95% 2.4 mph N3.9 kmh N 5.8 mph9.3 kmh 29.84 in1010.5 mb 0.00 in0.0 mm 0.00 in/hr0.0 mm/hr 0.08 in2.0 mm
02:44 AM 69.5°F20.8°C 68.0°F20.0°C 95% 2.7 mph SSE4.3 kmh SSE 5.8 mph9.3 kmh 29.84 in1010.5 mb 0.01 in0.3 mm 0.00 in/hr0.0 mm/hr 0.08 in2.0 mm
02:39 AM 69.5°F20.8°C 68.0°F20.0°C 95% 3.0 mph W4.8 kmh W 7.8 mph12.6 kmh 29.84 in1010.5 mb 0.02 in0.5 mm 0.00 in/hr0.0 mm/hr 0.08 in2.0 mm
02:34 AM 69.7°F20.9°C 68.1°F20.1°C 95% 4.0 mph WSW6.4 kmh WSW 7.8 mph12.6 kmh 29.83 in1010.2 mb 0.02 in0.5 mm 0.00 in/hr0.0 mm/hr 0.08 in2.0 mm
02:29 AM 69.7°F20.9°C 68.1°F20.1°C 95% 2.5 mph WSW4.0 kmh WSW 4.9 mph7.9 kmh 29.84 in1010.5 mb 0.02 in0.5 mm 0.00 in/hr0.0 mm/hr 0.08 in2.0 mm
02:24 AM 69.5°F20.8°C 68.0°F20.0°C 95% 2.4 mph WSW3.9 kmh WSW 4.5 mph7.2 kmh 29.84 in1010.5 mb 0.02 in0.5 mm 0.00 in/hr0.0 mm/hr 0.08 in2.0 mm
02:19 AM 69.3°F20.7°C 67.8°F19.9°C 95% 1.9 mph WNW3.1 kmh WNW 3.6 mph5.8 kmh 29.84 in1010.5 mb 0.04 in1.0 mm 0.00 in/hr0.0 mm/hr 0.08 in2.0 mm
02:14 AM 69.1°F20.6°C 67.6°F19.8°C 95% 2.3 mph W3.7 kmh W 5.4 mph8.7 kmh 29.84 in1010.5 mb 0.05 in1.3 mm 0.00 in/hr0.0 mm/hr 0.08 in2.0 mm
02:09 AM 68.9°F20.5°C 67.4°F19.7°C 95% 3.3 mph S5.3 kmh S 5.4 mph8.7 kmh 29.84 in1010.5 mb 0.06 in1.5 mm 0.00 in/hr0.0 mm/hr 0.08 in2.0 mm
02:04 AM 68.8°F20.4°C 67.2°F19.6°C 95% 1.5 mph SSE2.4 kmh SSE 4.0 mph6.4 kmh 29.84 in1010.5 mb 0.06 in1.5 mm 0.00 in/hr0.0 mm/hr 0.08 in2.0 mm
01:59 AM 68.6°F20.3°C 67.1°F19.5°C 95% 2.7 mph SSW4.3 kmh SSW 4.0 mph6.4 kmh 29.84 in1010.5 mb 0.06 in1.5 mm 0.00 in/hr0.0 mm/hr 0.08 in2.0 mm
01:54 AM 68.4°F20.2°C 66.9°F19.4°C 95% 1.5 mph WSW2.4 kmh WSW 3.8 mph6.1 kmh 29.84 in1010.5 mb 0.07 in1.8 mm 0.00 in/hr0.0 mm/hr 0.08 in2.0 mm
01:49 AM 68.4°F20.2°C 66.9°F19.4°C 95% 2.0 mph SSW3.2 kmh SSW 2.5 mph4.0 kmh 29.84 in1010.5 mb 0.08 in2.0 mm 0.12 in/hr3.0 mm/hr 0.08 in2.0 mm
01:44 AM 68.4°F20.2°C 66.9°F19.4°C 95% 1.0 mph SE1.6 kmh SE 2.9 mph4.7 kmh 29.84 in1010.5 mb 0.07 in1.8 mm 0.12 in/hr3.0 mm/hr 0.07 in1.8 mm
01:39 AM 68.6°F20.3°C 67.1°F19.5°C 95% 1.6 mph S2.6 kmh S 4.5 mph7.2 kmh 29.84 in1010.5 mb 0.06 in1.5 mm 0.00 in/hr0.0 mm/hr 0.06 in1.5 mm
01:34 AM 68.6°F20.3°C 67.1°F19.5°C 95% 2.4 mph SE3.9 kmh SE 4.5 mph7.2 kmh 29.84 in1010.5 mb 0.06 in1.5 mm 0.00 in/hr0.0 mm/hr 0.06 in1.5 mm
01:29 AM 68.6°F20.3°C 67.1°F19.5°C 95% 2.4 mph WSW3.9 kmh WSW 4.5 mph7.2 kmh 29.85 in1010.8 mb 0.06 in1.5 mm 0.00 in/hr0.0 mm/hr 0.06 in1.5 mm
01:24 AM 68.6°F20.3°C 67.1°F19.5°C 95% 2.4 mph S3.9 kmh S 4.5 mph7.2 kmh 29.86 in1011.2 mb 0.06 in1.5 mm 0.24 in/hr6.1 mm/hr 0.06 in1.5 mm
01:19 AM 68.6°F20.3°C 67.1°F19.5°C 95% 2.0 mph SSW3.2 kmh SSW 4.0 mph6.4 kmh 29.86 in1011.2 mb 0.04 in1.0 mm 0.24 in/hr6.1 mm/hr 0.04 in1.0 mm
01:14 AM 68.8°F20.4°C 67.2°F19.6°C 95% 1.6 mph SW2.6 kmh SW 4.0 mph6.4 kmh 29.86 in1011.2 mb 0.02 in0.5 mm 0.00 in/hr0.0 mm/hr 0.02 in0.5 mm
01:09 AM 68.8°F20.4°C 67.2°F19.6°C 95% 1.7 mph WSW2.7 kmh WSW 4.7 mph7.6 kmh 29.87 in1011.5 mb 0.02 in0.5 mm 0.00 in/hr0.0 mm/hr 0.02 in0.5 mm
01:04 AM 68.8°F20.4°C 67.2°F19.6°C 95% 3.3 mph WNW5.3 kmh WNW 6.3 mph10.1 kmh 29.87 in1011.5 mb 0.02 in0.5 mm 0.00 in/hr0.0 mm/hr 0.02 in0.5 mm
12:59 AM 68.8°F20.4°C 67.2°F19.6°C 95% 4.4 mph W7.1 kmh W 6.3 mph10.1 kmh 29.88 in1011.9 mb 0.02 in0.5 mm 0.24 in/hr6.1 mm/hr 0.02 in0.5 mm
12:54 AM 68.8°F20.4°C 67.2°F19.6°C 95% 2.5 mph WNW4.0 kmh WNW 4.9 mph7.9 kmh 29.88 in1011.9 mb 0.00 in0.0 mm 0.00 in/hr0.0 mm/hr 0.00 in0.0 mm
12:49 AM 68.8°F20.4°C 67.2°F19.6°C 95% 2.1 mph NW3.4 kmh NW 4.9 mph7.9 kmh 29.88 in1011.9 mb 0.00 in0.0 mm 0.00 in/hr0.0 mm/hr 0.00 in0.0 mm
12:44 AM 68.8°F20.4°C 67.2°F19.6°C 95% 1.8 mph S2.9 kmh S 3.6 mph5.8 kmh 29.88 in1011.9 mb 0.00 in0.0 mm 0.00 in/hr0.0 mm/hr 0.00 in0.0 mm
12:39 AM 68.6°F20.3°C 67.1°F19.5°C 95% 1.7 mph E2.7 kmh E 4.7 mph7.6 kmh 29.88 in1011.9 mb 0.00 in0.0 mm 0.00 in/hr0.0 mm/hr 0.00 in0.0 mm
12:34 AM 68.4°F20.2°C 66.9°F19.4°C 95% 1.6 mph SSE2.6 kmh SSE 4.7 mph7.6 kmh 29.88 in1011.9 mb 0.00 in0.0 mm 0.00 in/hr0.0 mm/hr 0.00 in0.0 mm
12:29 AM 68.4°F20.2°C 66.9°F19.4°C 95% 1.9 mph SE3.1 kmh SE 4.0 mph6.4 kmh 29.88 in1011.9 mb 0.00 in0.0 mm 0.00 in/hr0.0 mm/hr 0.00 in0.0 mm
12:24 AM 68.2°F20.1°C 66.7°F19.3°C 95% 1.1 mph W1.8 kmh W 2.5 mph4.0 kmh 29.88 in1011.9 mb 0.00 in0.0 mm 0.00 in/hr0.0 mm/hr 0.00 in0.0 mm
12:19 AM 68.0°F20.0°C 66.5°F19.2°C 95% 1.6 mph SW2.6 kmh SW 2.7 mph4.3 kmh 29.87 in1011.5 mb 0.00 in0.0 mm 0.00 in/hr0.0 mm/hr 0.00 in0.0 mm
12:14 AM 68.0°F20.0°C 66.5°F19.2°C 95% 0.7 mph WNW1.1 kmh WNW 2.7 mph4.3 kmh 29.88 in1011.9 mb 0.00 in0.0 mm 0.00 in/hr0.0 mm/hr 0.00 in0.0 mm
12:09 AM 67.9°F19.9°C 66.3°F19.1°C 95% 0.8 mph WSW1.3 kmh WSW 3.6 mph5.8 kmh 29.88 in1011.9 mb 0.00 in0.0 mm 0.00 in/hr0.0 mm/hr 0.00 in0.0 mm
12:04 AM 67.7°F19.8°C 66.2°F19.0°C 95% 1.0 mph SW1.6 kmh SW 4.5 mph7.2 kmh 29.88 in1011.9 mb 0.00 in0.0 mm 0.00 in/hr0.0 mm/hr 0.00 in0.0 mm